SBGRSBUL

Guest
Details From SBGR - Sao Paulo - Guarulhos
To SBUL - TEN CEL AV CESAR BOMBONATO
Flight Number -
Tags generated
Created
Modified
Stats Distance 293 nm / 542 km
Max Altitude 34,000 ft / 10,363 m
Waypoints 4
Social Downloads 0
Likes 0
Share VATSIM

Download

Looking for another format? Having issues loading an existing format? Contact us
Advertisement - Login to hide

Notes

Basic altitude profile: - Ascent Rate: 2500ft/min - Ascent Speed: 250kts - Cruise Altitude: 35000ft - Cruise Speed: 420kts - Descent Rate: 1500ft/min - Descent Speed: 250kts Options: - Use NATs: yes - Use PACOTS: yes - Use low airways: yes - Use high airways: yes

Route

SBGR PSN UW54 ABAFT SBUL

ID Type Via Altitude Latitude Longitude Leg Dist Tot Dist Heading (true) Name
O SBGR APT - 0 ft / 0 m -23.43233˚ -46.46968˚ - 0 nm - Sao Paulo - Guarulhos
PSN VOR - 34,000 ft / 10,363 m -21.98450˚ -47.34417˚ 99 nm 99 nm 331° / 331° PIRASSUNUNGA VOR-DME
ABAFT FIX UW54 (AWY-HI) 24,500 ft / 7,468 m -20.40958˚ -47.90858˚ 99 nm 199 nm 341° / 342° -
O SBUL APT - 0 ft / 0 m -18.88284˚ -48.22559˚ 93 nm 292 nm 349° / 349° TEN CEL AV CESAR BOMBONATO

Altitude Profile

Advertisement - Login to hide

Weather


0- 5 10 15 20 25 30 35+ Temperature / ° C

Clouds and Precipitation
Forecast for 2017-12-14 00:00 UTC. Updated an hour ago

Ground ~20,000 ft ~40,000 ft Winds

SBGR

Details ICAO SBGR (GRU)
Name Sao Paulo - Guarulhos
Region Brazil
Timezone America/Sao_Paulo (UTC-2.0)
Stats Elevation 2,459 ft / 750 m (AMSL)
Location -23.432333° -46.469675°
Runways 2
Magnetic Variation 21.413° W

METAR

SBGR 140000Z 13005KT 9999 OVC011 19/18 Q1020

Decode

TAF

TAF SBGR 132202Z 1400/1506 12008KT 9999 BKN013TN16/1408Z TX29/1417Z BECMG 1400/1402 07005KT PROB30 1407/1411 5000 BR BKN009 BECMG 1411/1414 SCT015 BECMG 1414/1415 15005KT PROB30 1416/1421 17008KT BKN030 BECMG 1421/1423 12004KT CAVOK BECMG 1500/1502 06007KT RMK PHM

Decode

Departure Runways

ID Width Length Bearing (true) Bearing (mag) Surface Threshold Offset Overrun Length
09L 148 ft / 45 m 12,676 ft / 3,864 m 73.61° 95.02° Asphalt 495 ft / 151 m 0 ft / 0 m
09R 148 ft / 45 m 9,950 ft / 3,033 m 73.60° 95.01° Asphalt 0 ft / 0 m 197 ft / 60 m
27L 148 ft / 45 m 9,950 ft / 3,033 m 253.59° 275.00° Asphalt 0 ft / 0 m 197 ft / 60 m
27R 148 ft / 45 m 12,676 ft / 3,864 m 253.60° 275.01° Asphalt 197 ft / 60 m 0 ft / 0 m

SBUL

Details ICAO SBUL (UDI)
Name TEN CEL AV CESAR BOMBONATO
Region Brazil
Timezone America/Sao_Paulo (UTC-2.0)
Stats Elevation 3,094 ft / 943 m (AMSL)
Location -18.882843° -48.225593°
Runways 1
Magnetic Variation 21.258° W

METAR

Not found

TAF

TAF SBUL 132202Z 1400/1412 06006KT 9999 SCT030TX25/1400Z TN19/1409Z RMK PHM

Decode

Destination Runways

ID Width Length Bearing (true) Bearing (mag) Surface Threshold Offset Overrun Length
04 148 ft / 45 m 6,418 ft / 1,956 m 22.56° 43.82° Asphalt 0 ft / 0 m 0 ft / 0 m
22 148 ft / 45 m 6,418 ft / 1,956 m 202.55° 223.81° Asphalt 0 ft / 0 m 0 ft / 0 m

Popular Alternatives